Time;durP1;ratioP1;P1;durP2;ratioP2;P2;SDS_P1;SDS_P2;PMS_P1;PMS_P2;Temp;Humidity;BMP_temperature;BMP_pressure;BME280_temperature;BME280_humidity;BME280_pressure;Samples;Min_cycle;Max_cycle;Signal;HPM_P1;HPM_P2
2022/11/18 00:01:18;;;;;;;17.60;14.03;;;5.70;99.90;;;;;;5140891;27;20813;-78
2022/11/18 00:03:47;;;;;;;14.20;12.80;;;5.80;99.90;;;;;;5141013;27;20828;-79
2022/11/18 00:06:17;;;;;;;14.10;12.70;;;5.70;99.90;;;;;;5141443;27;20446;-79
2022/11/18 00:08:47;;;;;;;13.90;12.50;;;5.70;99.90;;;;;;5143283;27;20429;-79
2022/11/18 00:14:17;;;;;;;14.23;12.83;;;5.70;99.90;;;;;;5141939;27;20482;-79
2022/11/18 00:14:19;;;;;;;14.17;12.67;;;5.70;99.90;;;;;;5141153;27;20470;-79
2022/11/18 00:16:49;;;;;;;14.50;12.67;;;5.70;99.90;;;;;;5141054;27;20427;-79
2022/11/18 00:19:19;;;;;;;13.33;12.03;;;5.70;99.90;;;;;;5142282;27;20529;-79
2022/11/18 00:21:47;;;;;;;13.67;12.27;;;5.70;99.90;;;;;;5140519;27;20548;-79
2022/11/18 00:24:17;;;;;;;13.07;11.70;;;5.70;99.90;;;;;;5140619;27;20872;-79
2022/11/18 00:26:45;;;;;;;14.30;12.37;;;5.70;99.90;;;;;;5140210;27;20446;-79
2022/11/18 00:29:13;;;;;;;14.30;12.17;;;5.70;99.90;;;;;;5140063;27;20458;-79
2022/11/18 00:31:42;;;;;;;13.50;11.00;;;5.80;99.90;;;;;;5142036;27;20494;-79
2022/11/18 00:34:12;;;;;;;14.20;12.67;;;5.70;99.90;;;;;;5141091;27;20474;-79
2022/11/18 00:36:40;;;;;;;13.43;11.57;;;5.70;99.90;;;;;;5140067;27;20473;-79
2022/11/18 00:39:11;;;;;;;12.33;10.73;;;5.70;99.90;;;;;;5142075;27;20939;-79
2022/11/18 00:44:26;;;;;;;12.40;10.70;;;5.70;99.90;;;;;;5144387;27;20445;-79
2022/11/18 00:46:54;;;;;;;14.23;12.73;;;5.60;99.90;;;;;;5141260;27;20986;-79
2022/11/18 00:49:22;;;;;;;10.57;9.13;;;5.70;99.90;;;;;;5141937;27;20442;-79
2022/11/18 00:51:50;;;;;;;16.40;12.30;;;5.70;99.90;;;;;;5139537;27;20442;-79
2022/11/18 00:54:19;;;;;;;15.10;12.23;;;5.70;99.90;;;;;;5139764;27;20470;-79
2022/11/18 00:56:49;;;;;;;13.50;11.23;;;5.70;99.90;;;;;;5140057;27;20434;-78
2022/11/18 00:59:17;;;;;;;14.23;12.73;;;5.70;99.90;;;;;;5140632;27;20442;-79
2022/11/18 01:01:45;;;;;;;14.83;12.37;;;5.70;99.90;;;;;;5139744;27;20438;-79
2022/11/18 01:04:14;;;;;;;15.23;12.93;;;5.70;99.90;;;;;;5139958;27;20837;-79
2022/11/18 01:06:42;;;;;;;15.70;14.03;;;5.70;99.90;;;;;;5139902;27;20447;-79
2022/11/18 01:09:10;;;;;;;15.60;13.70;;;5.60;99.90;;;;;;5139859;27;20549;-79
2022/11/18 01:14:26;;;;;;;16.17;14.03;;;5.60;99.90;;;;;;5140252;27;20470;-79
2022/11/18 01:16:54;;;;;;;17.23;13.87;;;5.70;99.90;;;;;;5140286;27;20974;-79
2022/11/18 01:19:23;;;;;;;14.43;12.93;;;5.60;99.90;;;;;;5142486;27;20442;-79
2022/11/18 01:21:52;;;;;;;17.57;14.57;;;5.60;99.90;;;;;;5142842;27;20446;-79
2022/11/18 01:24:20;;;;;;;15.00;13.50;;;5.60;99.90;;;;;;5141909;27;20459;-79
2022/11/18 01:26:48;;;;;;;18.53;13.67;;;5.60;99.90;;;;;;5142928;27;20439;-79
2022/11/18 01:29:16;;;;;;;19.07;15.17;;;5.60;99.90;;;;;;5141646;27;20774;-79
2022/11/18 01:31:46;;;;;;;19.20;14.90;;;5.60;99.90;;;;;;5143536;27;20438;-79
2022/11/18 01:34:34;;;;;;;16.13;14.03;;;5.60;99.90;;;;;;5142044;27;20596;-79
2022/11/18 01:37:02;;;;;;;15.77;12.47;;;5.60;99.90;;;;;;5143190;27;20445;-79
2022/11/18 01:39:31;;;;;;;16.17;13.90;;;5.60;99.90;;;;;;5141851;27;20446;-79
2022/11/18 01:41:59;;;;;;;14.17;12.27;;;5.50;99.90;;;;;;5145010;27;20434;-79
2022/11/18 01:45:08;;;;;;;15.97;13.37;;;5.50;99.90;;;;;;5145513;27;20446;-79
2022/11/18 01:47:44;;;;;;;16.90;13.70;;;5.60;99.90;;;;;;5141293;27;20502;-79
2022/11/18 01:50:15;;;;;;;19.87;14.83;;;5.50;99.90;;;;;;5145803;27;20422;-79
2022/11/18 01:52:43;;;;;;;16.90;14.23;;;5.50;99.90;;;;;;5145444;27;20446;-79
2022/11/18 01:55:23;;;;;;;16.70;13.53;;;5.50;99.90;;;;;;5143319;27;20411;-79
2022/11/18 01:57:58;;;;;;;16.63;14.63;;;5.50;99.90;;;;;;5141243;27;20430;-79
2022/11/18 02:00:26;;;;;;;16.20;13.40;;;5.50;99.90;;;;;;5140234;27;20406;-79
2022/11/18 02:02:57;;;;;;;14.43;12.50;;;5.50;99.90;;;;;;5137788;27;20561;-78
2022/11/18 02:05:26;;;;;;;18.00;14.70;;;5.50;99.90;;;;;;5138905;27;20523;-79
2022/11/18 02:07:55;;;;;;;17.67;14.37;;;5.50;99.90;;;;;;5138693;27;20521;-79
2022/11/18 02:10:24;;;;;;;14.90;13.00;;;5.50;99.90;;;;;;5138754;27;20447;-79
2022/11/18 02:12:54;;;;;;;16.67;13.43;;;5.50;99.90;;;;;;5138983;27;20565;-79
2022/11/18 02:15:28;;;;;;;15.70;12.73;;;5.50;99.90;;;;;;5138938;27;20474;-79
2022/11/18 02:18:07;;;;;;;17.70;13.87;;;5.50;99.90;;;;;;5139821;27;20458;-79
2022/11/18 02:20:41;;;;;;;15.23;13.53;;;5.50;99.90;;;;;;5138191;27;20806;-78
2022/11/18 02:23:48;;;;;;;15.90;13.30;;;5.50;99.90;;;;;;5140716;27;20466;-79
2022/11/18 02:26:55;;;;;;;15.83;12.10;;;5.50;99.90;;;;;;5139606;27;20491;-79
2022/11/18 02:29:28;;;;;;;13.60;12.00;;;5.50;99.90;;;;;;5139761;27;20434;-79
2022/11/18 02:32:00;;;;;;;17.40;13.10;;;5.50;99.90;;;;;;5137839;27;20442;-79
2022/11/18 02:34:40;;;;;;;14.17;11.67;;;5.50;99.90;;;;;;5138357;27;20542;-79
2022/11/18 02:37:15;;;;;;;13.30;11.73;;;5.50;99.90;;;;;;5140532;27;20775;-79
2022/11/18 02:39:48;;;;;;;14.27;10.80;;;5.50;99.90;;;;;;5138792;27;20524;-79
2022/11/18 02:42:17;;;;;;;12.97;10.63;;;5.50;99.90;;;;;;5137897;27;20488;-79
2022/11/18 02:44:51;;;;;;;11.67;10.47;;;5.50;99.90;;;;;;5137622;27;20851;-79
2022/11/18 02:47:20;;;;;;;12.83;10.70;;;5.50;99.90;;;;;;5137940;27;20474;-79
2022/11/18 02:49:52;;;;;;;12.90;10.50;;;5.50;99.90;;;;;;5139724;27;20526;-79
2022/11/18 02:52:23;;;;;;;11.00;9.83;;;5.50;99.90;;;;;;5139106;27;21001;-79
2022/11/18 02:54:55;;;;;;;12.50;9.67;;;5.40;99.90;;;;;;5137361;27;20458;-79
2022/11/18 02:57:25;;;;;;;10.80;9.70;;;5.40;99.90;;;;;;5138893;27;20437;-79
2022/11/18 02:59:55;;;;;;;11.60;9.80;;;5.50;99.90;;;;;;5138237;27;20446;-79
2022/11/18 03:02:23;;;;;;;10.83;9.67;;;5.40;99.90;;;;;;5139035;27;20457;-79
2022/11/18 03:04:55;;;;;;;10.37;9.27;;;5.40;99.90;;;;;;5137361;27;20914;-78
2022/11/18 03:07:28;;;;;;;13.20;10.70;;;5.40;99.90;;;;;;5139577;27;20415;-79
2022/11/18 03:09:58;;;;;;;12.00;10.77;;;5.40;99.90;;;;;;5137614;27;20453;-79
2022/11/18 03:12:35;;;;;;;11.83;10.63;;;5.40;99.90;;;;;;5139196;27;20825;-79
2022/11/18 03:15:16;;;;;;;11.50;9.20;;;5.40;99.90;;;;;;5137369;27;20549;-79
2022/11/18 03:17:53;;;;;;;11.00;9.30;;;5.30;99.90;;;;;;5138982;27;20414;-79
2022/11/18 03:20:26;;;;;;;11.70;8.97;;;5.30;99.90;;;;;;5139292;27;20426;-79
2022/11/18 03:22:59;;;;;;;13.57;9.90;;;5.30;99.90;;;;;;5137513;27;20572;-79
2022/11/18 03:25:36;;;;;;;10.93;9.83;;;5.30;99.90;;;;;;5139330;27;20463;-79
2022/11/18 03:28:10;;;;;;;10.50;9.17;;;5.30;99.90;;;;;;5138622;27;20418;-79
2022/11/18 03:30:45;;;;;;;10.20;8.73;;;5.30;99.90;;;;;;5137396;28;20456;-79
2022/11/18 03:33:19;;;;;;;12.30;9.13;;;5.30;99.90;;;;;;5139202;28;20452;-79
2022/11/18 03:35:51;;;;;;;11.33;8.63;;;5.20;99.90;;;;;;5137108;28;20465;-79
2022/11/18 03:38:26;;;;;;;12.67;9.20;;;5.20;99.90;;;;;;5138994;27;20964;-79
2022/11/18 03:40:58;;;;;;;11.90;9.20;;;5.20;99.90;;;;;;5137185;28;20537;-79
2022/11/18 03:43:31;;;;;;;11.23;9.50;;;5.20;99.90;;;;;;5138236;28;20466;-78
2022/11/18 03:46:07;;;;;;;10.53;9.17;;;5.20;99.90;;;;;;5140243;28;20768;-79
2022/11/18 03:48:39;;;;;;;12.20;9.53;;;5.20;99.90;;;;;;5137198;28;20445;-79
2022/11/18 03:51:11;;;;;;;11.43;10.23;;;5.20;99.90;;;;;;5137587;28;20541;-79
2022/11/18 03:53:42;;;;;;;12.47;10.60;;;5.20;99.90;;;;;;5137173;28;20474;-79
2022/11/18 03:56:15;;;;;;;13.70;10.40;;;5.10;99.90;;;;;;5138299;27;20442;-79
2022/11/18 03:58:53;;;;;;;13.33;10.40;;;5.10;99.90;;;;;;5136646;28;20515;-79
2022/11/18 04:01:29;;;;;;;13.53;10.73;;;5.10;99.90;;;;;;5136468;28;20452;-79
2022/11/18 04:03:59;;;;;;;13.50;10.30;;;5.10;99.90;;;;;;5136957;28;20545;-79
2022/11/18 04:06:34;;;;;;;14.27;11.53;;;5.10;99.90;;;;;;5138088;28;20440;-79
2022/11/18 04:09:09;;;;;;;13.20;11.10;;;5.10;99.90;;;;;;5136685;28;20470;-79
2022/11/18 04:14:31;;;;;;;15.27;12.20;;;5.10;99.90;;;;;;5136718;28;20970;-79
2022/11/18 04:17:00;;;;;;;15.90;13.07;;;5.10;99.90;;;;;;5136710;28;20486;-79
2022/11/18 04:19:28;;;;;;;13.73;12.13;;;5.10;99.90;;;;;;5137267;28;20453;-79
2022/11/18 04:21:56;;;;;;;13.90;12.50;;;5.00;99.90;;;;;;5137148;27;20450;-79
2022/11/18 04:24:24;;;;;;;17.00;13.37;;;5.00;99.90;;;;;;5138853;27;20438;-79
2022/11/18 04:26:53;;;;;;;22.70;18.03;;;5.00;99.90;;;;;;5139878;27;20442;-79
2022/11/18 04:29:21;;;;;;;17.83;14.90;;;4.90;99.90;;;;;;5142299;27;20448;-79
2022/11/18 04:31:49;;;;;;;18.77;14.30;;;5.00;99.90;;;;;;5142729;27;20446;-79
2022/11/18 04:34:18;;;;;;;16.60;13.07;;;5.00;99.90;;;;;;5142156;27;20466;-79
2022/11/18 04:36:53;;;;;;;17.20;13.27;;;5.00;99.90;;;;;;5140975;27;20458;-79
2022/11/18 04:39:21;;;;;;;17.80;12.97;;;5.00;99.90;;;;;;5140922;27;20430;-79
2022/11/18 04:41:58;;;;;;;16.27;13.67;;;5.00;99.90;;;;;;5139522;27;20442;-79
2022/11/18 04:44:28;;;;;;;17.20;14.33;;;4.90;99.90;;;;;;5141047;27;20791;-79
2022/11/18 04:46:57;;;;;;;19.60;16.03;;;4.90;99.90;;;;;;5138686;27;20447;-78
2022/11/18 04:49:27;;;;;;;19.03;14.70;;;4.90;99.90;;;;;;5140763;27;20434;-79
2022/11/18 04:51:56;;;;;;;19.37;15.50;;;4.90;99.90;;;;;;5142974;27;20422;-79
2022/11/18 04:54:26;;;;;;;18.93;15.93;;;4.80;99.90;;;;;;5142397;27;20881;-79
2022/11/18 04:56:55;;;;;;;19.63;15.03;;;4.80;99.90;;;;;;5142187;27;20426;-79
2022/11/18 04:59:25;;;;;;;19.77;16.57;;;4.80;99.90;;;;;;5140998;27;20457;-79
2022/11/18 05:01:54;;;;;;;20.90;15.63;;;4.80;99.90;;;;;;5140854;27;20434;-79
2022/11/18 05:04:24;;;;;;;18.97;15.10;;;4.70;99.90;;;;;;5138974;27;20822;-79
2022/11/18 05:06:54;;;;;;;18.30;14.73;;;4.70;99.90;;;;;;5138638;27;20434;-79
2022/11/18 05:09:22;;;;;;;19.97;15.70;;;4.70;99.90;;;;;;5138610;27;20451;-79
2022/11/18 05:14:44;;;;;;;17.97;13.90;;;4.70;99.90;;;;;;5147856;27;21023;-79
2022/11/18 05:17:18;;;;;;;18.40;14.43;;;4.60;99.90;;;;;;5146529;27;20492;-79
2022/11/18 05:19:46;;;;;;;19.90;14.80;;;4.60;99.90;;;;;;5147043;27;20963;-79
2022/11/18 05:22:16;;;;;;;19.33;15.90;;;4.60;99.90;;;;;;5144682;27;20450;-79
2022/11/18 05:24:44;;;;;;;18.17;14.40;;;4.60;99.90;;;;;;5146072;27;20434;-78
2022/11/18 05:27:12;;;;;;;17.40;13.30;;;4.60;99.90;;;;;;5146620;27;20502;-79
2022/11/18 05:29:40;;;;;;;18.80;13.70;;;4.50;99.90;;;;;;5145717;27;20450;-79
2022/11/18 05:32:08;;;;;;;19.87;14.13;;;4.50;99.90;;;;;;5144800;27;20542;-79
2022/11/18 05:34:36;;;;;;;16.80;14.47;;;4.50;99.90;;;;;;5144093;27;20545;-79
2022/11/18 05:37:04;;;;;;;21.17;14.83;;;4.40;99.90;;;;;;5144146;27;20474;-79
2022/11/18 05:39:34;;;;;;;18.53;15.10;;;4.40;99.90;;;;;;5143620;27;20446;-79
2022/11/18 05:44:49;;;;;;;18.87;14.70;;;4.40;99.90;;;;;;5144827;27;20438;-79
2022/11/18 05:47:24;;;;;;;22.27;14.40;;;4.40;99.90;;;;;;5143112;27;20442;-78
2022/11/18 05:49:53;;;;;;;21.37;15.53;;;4.40;99.90;;;;;;5143279;27;20442;-79
2022/11/18 05:52:21;;;;;;;28.50;16.27;;;4.30;99.90;;;;;;5142348;27;20466;-79
2022/11/18 05:54:51;;;;;;;20.43;15.40;;;4.30;99.90;;;;;;5143934;27;20537;-79
2022/11/18 05:57:19;;;;;;;22.00;16.87;;;4.30;99.90;;;;;;5144319;27;20541;-79
2022/11/18 05:59:47;;;;;;;23.67;16.30;;;4.30;99.90;;;;;;5145299;27;20491;-79
2022/11/18 06:02:19;;;;;;;21.23;15.50;;;4.30;99.90;;;;;;5144721;27;20448;-79
2022/11/18 06:04:50;;;;;;;21.37;15.80;;;4.20;99.90;;;;;;5142844;27;20431;-79
2022/11/18 06:07:22;;;;;;;20.63;14.70;;;4.20;99.90;;;;;;5142393;27;20453;-79
2022/11/18 06:09:55;;;;;;;22.60;16.40;;;4.20;99.90;;;;;;5141834;27;20488;-79
2022/11/18 06:12:31;;;;;;;24.30;16.60;;;4.20;99.90;;;;;;5141996;27;21081;-79
2022/11/18 06:15:03;;;;;;;24.47;17.03;;;4.20;99.90;;;;;;5141665;27;20442;-79
2022/11/18 06:17:34;;;;;;;23.37;17.80;;;4.20;99.90;;;;;;5143539;27;20499;-79
2022/11/18 06:20:04;;;;;;;22.60;17.93;;;4.10;99.90;;;;;;5141448;27;20491;-79
2022/11/18 06:22:33;;;;;;;24.83;16.70;;;4.10;99.90;;;;;;5142632;27;20472;-79
2022/11/18 06:25:03;;;;;;;22.90;17.47;;;4.10;99.90;;;;;;5141538;27;20461;-79
2022/11/18 06:27:32;;;;;;;23.63;18.30;;;4.10;99.90;;;;;;5142622;27;20434;-79
2022/11/18 06:30:00;;;;;;;23.60;18.23;;;4.10;99.90;;;;;;5142692;27;20438;-79
2022/11/18 06:32:28;;;;;;;22.73;16.53;;;4.10;99.90;;;;;;5142430;27;20986;-78
2022/11/18 06:34:56;;;;;;;21.17;17.03;;;4.10;99.90;;;;;;5140158;27;20443;-78
2022/11/18 06:37:24;;;;;;;22.47;17.63;;;4.10;99.90;;;;;;5140142;27;20439;-79
2022/11/18 06:39:52;;;;;;;24.73;19.50;;;4.10;99.90;;;;;;5142779;27;20846;-79
2022/11/18 06:45:08;;;;;;;24.00;19.07;;;4.00;99.90;;;;;;5137808;27;20922;-79
2022/11/18 06:47:36;;;;;;;22.80;17.90;;;4.10;99.90;;;;;;5138482;27;20493;-79
2022/11/18 06:50:05;;;;;;;25.57;19.03;;;4.10;99.90;;;;;;5139465;27;20440;-79
2022/11/18 06:52:33;;;;;;;25.47;19.50;;;4.10;99.90;;;;;;5138185;27;20469;-79
2022/11/18 06:55:02;;;;;;;24.00;17.73;;;4.10;99.90;;;;;;5140212;27;20969;-79
2022/11/18 06:57:31;;;;;;;24.40;19.47;;;4.10;99.90;;;;;;5141924;27;20422;-79
2022/11/18 06:59:59;;;;;;;27.13;18.90;;;4.10;99.90;;;;;;5141274;27;20444;-79
2022/11/18 07:02:29;;;;;;;24.87;19.53;;;4.10;99.90;;;;;;5141911;27;21011;-79
2022/11/18 07:04:57;;;;;;;24.40;17.97;;;4.10;99.90;;;;;;5143547;27;20437;-79
2022/11/18 07:07:25;;;;;;;25.57;18.97;;;4.10;99.90;;;;;;5141461;27;20532;-79
2022/11/18 07:09:56;;;;;;;26.37;19.23;;;4.00;99.90;;;;;;5143833;27;20442;-79
2022/11/18 07:12:24;;;;;;;22.87;18.27;;;4.00;99.90;;;;;;5144884;27;20453;-79
2022/11/18 07:14:53;;;;;;;22.57;17.67;;;4.00;99.90;;;;;;5143640;27;20939;-79
2022/11/18 07:17:22;;;;;;;22.07;16.70;;;4.00;99.90;;;;;;5143105;27;20463;-79
2022/11/18 07:19:50;;;;;;;23.30;16.63;;;4.00;99.90;;;;;;5145106;27;20509;-79
2022/11/18 07:22:18;;;;;;;23.87;18.43;;;4.00;99.90;;;;;;5142165;27;20584;-79
2022/11/18 07:24:46;;;;;;;22.70;18.33;;;3.90;99.90;;;;;;5142739;27;20520;-79
2022/11/18 07:27:14;;;;;;;23.40;17.00;;;3.90;99.90;;;;;;5142727;27;20955;-79
2022/11/18 07:29:42;;;;;;;21.20;16.80;;;3.90;99.90;;;;;;5143609;28;20530;-79
2022/11/18 07:32:14;;;;;;;28.53;19.17;;;3.90;99.90;;;;;;5142972;28;20450;-79
2022/11/18 07:34:43;;;;;;;21.77;17.10;;;3.90;99.90;;;;;;5144043;28;20499;-79
2022/11/18 07:37:12;;;;;;;25.50;18.67;;;3.90;99.90;;;;;;5143513;28;20485;-79
2022/11/18 07:39:40;;;;;;;21.90;18.13;;;3.90;99.90;;;;;;5144165;28;20491;-79
2022/11/18 07:42:09;;;;;;;21.30;17.10;;;3.90;99.90;;;;;;5143825;28;20446;-79
2022/11/18 07:44:37;;;;;;;22.40;18.13;;;3.90;99.90;;;;;;5143632;28;20442;-79
2022/11/18 07:47:05;;;;;;;23.77;17.87;;;3.90;99.90;;;;;;5142936;28;20443;-79
2022/11/18 07:49:35;;;;;;;28.17;19.43;;;3.90;99.90;;;;;;5144274;28;20430;-79
2022/11/18 07:52:03;;;;;;;25.10;18.83;;;3.90;99.90;;;;;;5144391;27;20435;-79
2022/11/18 07:54:31;;;;;;;24.80;19.97;;;3.90;99.90;;;;;;5144570;28;20430;-79
2022/11/18 07:56:59;;;;;;;22.90;18.97;;;3.90;99.90;;;;;;5143356;28;20558;-79
2022/11/18 07:59:27;;;;;;;25.13;18.60;;;3.90;99.90;;;;;;5144641;27;20434;-79
2022/11/18 08:01:56;;;;;;;23.37;18.20;;;3.90;99.90;;;;;;5146777;27;20438;-78
2022/11/18 08:04:24;;;;;;;25.27;17.77;;;3.90;99.90;;;;;;5149719;27;20463;-79
2022/11/18 08:06:54;;;;;;;24.03;19.07;;;3.80;99.90;;;;;;5148923;27;20453;-78
2022/11/18 08:09:22;;;;;;;25.60;18.70;;;3.90;99.90;;;;;;5149402;27;20442;-79
2022/11/18 08:11:50;;;;;;;23.37;18.30;;;3.90;99.90;;;;;;5147244;27;20454;-79
2022/11/18 08:14:18;;;;;;;24.60;18.60;;;3.90;99.90;;;;;;5146897;27;20500;-79
2022/11/18 08:16:46;;;;;;;23.47;18.73;;;3.90;99.90;;;;;;5149028;27;20498;-78
2022/11/18 08:19:14;;;;;;;24.20;19.83;;;3.90;99.90;;;;;;5148614;27;20476;-79
2022/11/18 08:21:43;;;;;;;21.83;18.07;;;3.90;99.90;;;;;;5147232;27;20465;-79
2022/11/18 08:24:12;;;;;;;23.50;19.33;;;3.90;99.90;;;;;;5146863;27;20472;-79
2022/11/18 08:26:44;;;;;;;24.87;18.80;;;3.90;99.90;;;;;;5147838;27;20434;-79
2022/11/18 08:29:12;;;;;;;24.50;18.70;;;3.80;99.90;;;;;;5148537;27;20487;-79
2022/11/18 08:31:40;;;;;;;26.40;19.33;;;3.80;99.90;;;;;;5148049;27;20434;-79
2022/11/18 08:34:08;;;;;;;24.17;18.73;;;3.80;99.90;;;;;;5146320;27;20515;-79
2022/11/18 08:36:38;;;;;;;25.30;19.13;;;3.80;99.90;;;;;;5146555;27;20568;-79
2022/11/18 08:39:08;;;;;;;24.67;18.67;;;3.80;99.90;;;;;;5145504;27;20438;-79
2022/11/18 08:41:39;;;;;;;26.43;18.60;;;3.90;99.90;;;;;;5146394;27;20449;-79
2022/11/18 08:44:10;;;;;;;26.00;19.47;;;3.80;99.90;;;;;;5147017;27;20538;-78
2022/11/18 08:46:38;;;;;;;25.93;19.00;;;3.80;99.90;;;;;;5145339;27;20449;-79
2022/11/18 08:49:06;;;;;;;26.03;19.77;;;3.80;99.90;;;;;;5146381;27;20819;-79
2022/11/18 08:51:34;;;;;;;28.73;21.93;;;3.80;99.90;;;;;;5146780;27;20438;-79
2022/11/18 08:54:03;;;;;;;25.80;21.10;;;3.80;99.90;;;;;;5146951;27;20458;-79
2022/11/18 08:56:31;;;;;;;26.90;20.40;;;3.80;99.90;;;;;;5146429;27;20458;-79
2022/11/18 08:59:01;;;;;;;25.30;19.93;;;3.70;99.90;;;;;;5145983;27;20822;-79
2022/11/18 09:01:29;;;;;;;25.17;19.37;;;3.70;99.90;;;;;;5146557;27;20453;-79
2022/11/18 09:03:57;;;;;;;25.50;19.77;;;3.70;99.90;;;;;;5147391;27;20994;-79
2022/11/18 09:06:25;;;;;;;25.87;20.03;;;3.70;99.90;;;;;;5146193;27;20530;-79
2022/11/18 09:08:54;;;;;;;29.30;20.50;;;3.70;99.90;;;;;;5147188;27;20438;-78
2022/11/18 09:11:23;;;;;;;31.33;22.00;;;3.70;99.90;;;;;;5143780;27;20453;-79
2022/11/18 09:13:52;;;;;;;27.00;20.57;;;3.70;99.90;;;;;;5146775;27;20501;-78
2022/11/18 09:16:42;;;;;;;28.80;21.00;;;3.70;99.90;;;;;;5147381;27;20872;-78
2022/11/18 09:19:10;;;;;;;26.80;21.53;;;3.60;99.90;;;;;;5145315;27;20450;-79
2022/11/18 09:21:59;;;;;;;28.97;22.27;;;3.70;99.90;;;;;;5144961;27;20462;-79
2022/11/18 09:24:27;;;;;;;28.30;22.53;;;3.60;99.90;;;;;;5145025;27;20434;-78
2022/11/18 09:26:55;;;;;;;28.77;21.80;;;3.60;99.90;;;;;;5142726;27;20440;-79
2022/11/18 09:29:25;;;;;;;30.73;22.37;;;3.60;99.90;;;;;;5145190;27;20442;-79
2022/11/18 09:31:54;;;;;;;29.20;21.60;;;3.60;99.90;;;;;;5144927;27;20945;-78
2022/11/18 09:34:23;;;;;;;30.87;23.17;;;3.60;99.90;;;;;;5147778;27;20807;-79
2022/11/18 09:36:54;;;;;;;26.87;22.67;;;3.60;99.90;;;;;;5144676;27;20474;-79
2022/11/18 09:39:24;;;;;;;29.90;24.17;;;3.60;99.90;;;;;;5146979;27;20513;-79
2022/11/18 09:42:00;;;;;;;30.23;22.83;;;3.60;99.90;;;;;;5146320;27;20454;-79
2022/11/18 09:44:51;;;;;;;37.43;28.40;;;3.60;99.90;;;;;;5146670;27;20474;-79
2022/11/18 09:47:27;;;;;;;30.60;22.70;;;3.60;99.90;;;;;;5146401;27;20794;-79
2022/11/18 09:49:56;;;;;;;30.70;23.30;;;3.60;99.90;;;;;;5146438;27;20434;-79
2022/11/18 09:52:27;;;;;;;32.10;23.17;;;3.60;99.90;;;;;;5146095;27;20473;-79
2022/11/18 09:55:05;;;;;;;29.90;23.67;;;3.60;99.90;;;;;;5147853;27;20494;-79
2022/11/18 09:57:39;;;;;;;29.23;23.77;;;3.60;99.90;;;;;;5147233;27;20458;-80
2022/11/18 10:00:14;;;;;;;32.27;24.50;;;3.60;99.90;;;;;;5148063;27;20519;-79
2022/11/18 10:02:52;;;;;;;36.37;25.53;;;3.50;99.90;;;;;;5147275;27;20486;-79
2022/11/18 10:05:22;;;;;;;34.13;24.63;;;3.60;99.90;;;;;;5145261;27;20438;-79
2022/11/18 10:08:03;;;;;;;31.87;25.40;;;3.50;99.90;;;;;;5145664;27;20438;-79
2022/11/18 10:10:39;;;;;;;37.93;27.00;;;3.50;99.90;;;;;;5146127;27;20831;-79
2022/11/18 10:13:18;;;;;;;33.57;26.47;;;3.50;99.90;;;;;;5146917;27;20974;-79
2022/11/18 10:15:55;;;;;;;33.63;25.47;;;3.50;99.90;;;;;;5146955;27;20800;-79
2022/11/18 10:18:30;;;;;;;34.73;26.20;;;3.50;99.90;;;;;;5144327;27;20550;-79
2022/11/18 10:21:27;;;;;;;34.67;25.20;;;3.50;99.90;;;;;;5145759;27;20472;-78
2022/11/18 10:24:01;;;;;;;40.43;27.53;;;3.50;99.90;;;;;;5144188;27;20506;-79
2022/11/18 10:26:35;;;;;;;35.07;27.07;;;3.50;99.90;;;;;;5145085;27;20450;-79
2022/11/18 10:29:06;;;;;;;37.83;27.23;;;3.50;99.90;;;;;;5146956;27;20430;-79
2022/11/18 10:31:37;;;;;;;33.50;25.77;;;3.50;99.90;;;;;;5144801;27;20430;-79
2022/11/18 10:34:10;;;;;;;32.77;24.40;;;3.50;99.90;;;;;;5143635;27;20473;-79
2022/11/18 10:36:38;;;;;;;40.03;28.47;;;3.50;99.90;;;;;;5143311;27;20923;-79
2022/11/18 10:39:10;;;;;;;36.17;28.10;;;3.50;99.90;;;;;;5143754;27;20494;-79
2022/11/18 10:41:43;;;;;;;34.20;25.50;;;3.50;99.90;;;;;;5143510;27;20446;-78
2022/11/18 10:44:30;;;;;;;33.70;24.73;;;3.50;99.90;;;;;;5143408;27;20577;-78
2022/11/18 10:47:28;;;;;;;37.80;29.83;;;3.50;99.90;;;;;;5142478;27;20495;-78
2022/11/18 10:50:00;;;;;;;31.37;24.83;;;3.40;99.90;;;;;;5136313;27;20836;-79
2022/11/18 10:52:29;;;;;;;31.07;23.43;;;3.40;99.90;;;;;;5145822;27;20446;-78
2022/11/18 10:55:20;;;;;;;30.40;23.40;;;3.40;99.90;;;;;;5145432;27;20454;-79
2022/11/18 10:57:51;;;;;;;31.63;23.10;;;3.40;99.90;;;;;;5145523;27;21008;-79
2022/11/18 11:00:38;;;;;;;30.63;23.77;;;3.40;99.90;;;;;;5144220;27;20502;-79
2022/11/18 11:03:35;;;;;;;30.50;23.90;;;3.40;99.90;;;;;;5142711;27;20486;-79
2022/11/18 11:06:29;;;;;;;32.70;24.20;;;3.40;99.90;;;;;;5128460;27;20464;-79
2022/11/18 11:09:00;;;;;;;30.83;25.60;;;3.40;99.90;;;;;;5146113;27;20522;-79
2022/11/18 11:11:31;;;;;;;33.67;25.27;;;3.30;99.90;;;;;;5145673;27;20478;-79
2022/11/18 11:14:13;;;;;;;30.90;23.77;;;3.30;99.90;;;;;;5146433;27;20479;-79
2022/11/18 11:16:48;;;;;;;31.40;24.33;;;3.30;99.90;;;;;;5144523;27;20442;-79
2022/11/18 11:19:21;;;;;;;27.90;22.83;;;3.30;99.90;;;;;;5143878;27;20465;-79
2022/11/18 11:21:51;;;;;;;30.97;25.03;;;3.30;99.90;;;;;;5144890;27;20513;-79
2022/11/18 11:24:22;;;;;;;29.07;24.13;;;3.20;99.90;;;;;;5143634;27;20481;-79
2022/11/18 11:27:04;;;;;;;28.97;22.80;;;3.20;99.90;;;;;;5144203;27;20465;-79
2022/11/18 11:30:18;;;;;;;28.57;22.53;;;3.20;99.90;;;;;;5146091;27;20445;-79
2022/11/18 11:33:18;;;;;;;28.60;23.30;;;3.20;99.90;;;;;;5121977;28;20462;-80
2022/11/18 11:35:57;;;;;;;28.23;22.30;;;3.20;99.90;;;;;;5143801;27;20489;-79
2022/11/18 11:38:38;;;;;;;28.47;21.77;;;3.20;99.90;;;;;;5143822;28;20503;-79
2022/11/18 11:41:17;;;;;;;28.43;22.97;;;3.20;99.90;;;;;;5141723;28;20441;-79
2022/11/18 11:44:00;;;;;;;29.23;23.03;;;3.20;99.90;;;;;;5141846;28;20492;-79
2022/11/18 11:46:37;;;;;;;30.30;23.30;;;3.20;99.90;;;;;;5142051;28;20468;-79
2022/11/18 11:49:18;;;;;;;26.47;21.37;;;3.10;99.90;;;;;;5142015;28;20448;-79
2022/11/18 11:51:54;;;;;;;26.37;21.70;;;3.10;99.90;;;;;;5143795;27;20422;-79
2022/11/18 11:54:36;;;;;;;29.17;22.80;;;3.20;99.90;;;;;;5142030;28;20476;-79
2022/11/18 11:57:12;;;;;;;25.83;23.10;;;3.10;99.90;;;;;;5141454;28;20437;-79
2022/11/18 11:59:51;;;;;;;24.50;20.87;;;3.10;99.90;;;;;;5143484;28;20450;-79
2022/11/18 12:02:40;;;;;;;24.23;19.97;;;3.10;99.90;;;;;;5141576;28;20472;-79
2022/11/18 12:05:19;;;;;;;25.93;21.80;;;3.10;99.90;;;;;;5146663;27;20419;-79
2022/11/18 12:07:53;;;;;;;26.90;22.30;;;3.10;99.90;;;;;;5141907;28;20495;-80
2022/11/18 12:10:35;;;;;;;23.93;20.73;;;3.10;99.90;;;;;;5141842;28;20449;-80
2022/11/18 12:13:17;;;;;;;25.93;20.53;;;3.20;99.90;;;;;;5140914;28;20473;-80
2022/11/18 12:15:58;;;;;;;22.80;20.30;;;3.20;99.90;;;;;;5143386;28;20434;-79
2022/11/18 12:18:34;;;;;;;21.63;19.20;;;3.20;99.90;;;;;;5141315;28;20515;-79
2022/11/18 12:21:02;;;;;;;25.03;22.33;;;3.20;99.90;;;;;;5139916;28;20442;-79
2022/11/18 12:23:32;;;;;;;23.17;19.33;;;3.20;99.90;;;;;;5141148;28;20568;-79
2022/11/18 12:26:35;;;;;;;24.03;20.80;;;3.20;99.90;;;;;;5142684;28;20427;-80
2022/11/18 12:29:23;;;;;;;27.93;23.30;;;3.20;99.90;;;;;;5141801;28;20449;-79
2022/11/18 12:31:53;;;;;;;23.83;21.30;;;3.30;99.90;;;;;;5142785;28;20453;-79
2022/11/18 12:34:32;;;;;;;22.30;19.00;;;3.30;99.90;;;;;;5142576;28;20468;-79
2022/11/18 12:37:33;;;;;;;23.40;19.63;;;3.30;99.90;;;;;;5144438;28;20422;-80
2022/11/18 12:40:02;;;;;;;24.30;20.87;;;3.30;99.90;;;;;;5144813;28;20469;-80
2022/11/18 12:45:50;;;;;;;22.97;19.57;;;3.20;99.90;;;;;;5144064;27;20779;-80
2022/11/18 12:48:36;;;;;;;25.00;21.30;;;3.20;99.90;;;;;;5145710;27;20446;-80
2022/11/18 12:51:41;;;;;;;28.07;21.80;;;3.20;99.90;;;;;;5175934;22;20524;-80
2022/11/18 12:54:29;;;;;;;23.87;20.13;;;3.30;99.90;;;;;;5083857;28;20468;-80
2022/11/18 12:57:02;;;;;;;24.13;21.73;;;3.20;99.90;;;;;;5084649;28;20824;-80
2022/11/18 12:59:34;;;;;;;21.47;19.17;;;3.20;99.90;;;;;;5085341;28;20485;-80
2022/11/18 13:02:24;;;;;;;21.93;18.80;;;3.30;99.90;;;;;;5078809;28;20453;-80
2022/11/18 13:05:07;;;;;;;21.57;19.00;;;3.30;99.90;;;;;;5077837;28;20845;-80
2022/11/18 13:10:32;;;;;;;82.97;27.27;;;3.30;99.90;;;;;;5082099;28;20451;-80
2022/11/18 13:13:00;;;;;;;34.33;21.80;;;3.30;99.90;;;;;;5083341;28;20817;-80
2022/11/18 13:18:18;;;;;;;416.37;63.00;;;3.20;99.90;;;;;;5079718;28;20433;-80
2022/11/18 13:20:57;;;;;;;32.10;25.80;;;3.20;99.90;;;;;;5078869;28;20448;-80
2022/11/18 13:26:20;;;;;;;34.57;29.73;;;3.20;99.90;;;;;;5078660;28;20470;-80
2022/11/18 13:29:14;;;;;;;37.60;30.17;;;3.20;99.90;;;;;;5079628;28;20696;-80
2022/11/18 13:31:53;;;;;;;30.73;25.30;;;3.20;99.90;;;;;;5078916;28;20809;-80
2022/11/18 13:34:24;;;;;;;32.57;26.53;;;3.20;99.90;;;;;;5078794;28;20571;-79
2022/11/18 13:36:54;;;;;;;28.23;23.50;;;3.20;99.90;;;;;;5078672;28;20780;-80